sensor_id;sensor_type;location;lat;lon;timestamp;temperature;humidity
68990;DHT22;56046;47.270;11.368;2022-11-18T00:00:54;4.68;92.15
68990;DHT22;56046;47.270;11.368;2022-11-18T00:03:19;4.70;92.08
68990;DHT22;56046;47.270;11.368;2022-11-18T00:05:55;4.77;92.10
68990;DHT22;56046;47.270;11.368;2022-11-18T00:08:21;4.76;92.00
68990;DHT22;56046;47.270;11.368;2022-11-18T00:10:47;4.75;92.19
68990;DHT22;56046;47.270;11.368;2022-11-18T00:13:13;4.89;91.50
68990;DHT22;56046;47.270;11.368;2022-11-18T00:16:05;4.75;91.90
68990;DHT22;56046;47.270;11.368;2022-11-18T00:18:31;4.70;91.35
68990;DHT22;56046;47.270;11.368;2022-11-18T00:23:29;4.63;91.02
68990;DHT22;56046;47.270;11.368;2022-11-18T00:25:54;4.53;91.08
68990;DHT22;56046;47.270;11.368;2022-11-18T00:28:20;4.44;91.21
68990;DHT22;56046;47.270;11.368;2022-11-18T00:30:45;4.38;91.61
68990;DHT22;56046;47.270;11.368;2022-11-18T00:33:11;4.40;91.96
68990;DHT22;56046;47.270;11.368;2022-11-18T00:35:36;4.35;92.32
68990;DHT22;56046;47.270;11.368;2022-11-18T00:38:01;4.34;92.13
68990;DHT22;56046;47.270;11.368;2022-11-18T00:40:27;4.34;92.14
68990;DHT22;56046;47.270;11.368;2022-11-18T00:42:52;4.46;91.70
68990;DHT22;56046;47.270;11.368;2022-11-18T00:45:21;4.52;91.04
68990;DHT22;56046;47.270;11.368;2022-11-18T00:47:47;4.32;91.56
68990;DHT22;56046;47.270;11.368;2022-11-18T00:50:13;4.28;91.27
68990;DHT22;56046;47.270;11.368;2022-11-18T00:52:38;4.22;91.51
68990;DHT22;56046;47.270;11.368;2022-11-18T00:55:04;4.21;91.52
68990;DHT22;56046;47.270;11.368;2022-11-18T00:57:30;4.20;91.48
68990;DHT22;56046;47.270;11.368;2022-11-18T00:59:55;4.25;91.81
68990;DHT22;56046;47.270;11.368;2022-11-18T01:02:20;4.14;92.50
68990;DHT22;56046;47.270;11.368;2022-11-18T01:04:46;4.20;92.18
68990;DHT22;56046;47.270;11.368;2022-11-18T01:07:11;4.24;91.54
68990;DHT22;56046;47.270;11.368;2022-11-18T01:09:37;4.11;91.70
68990;DHT22;56046;47.270;11.368;2022-11-18T01:12:02;4.00;91.48
68990;DHT22;56046;47.270;11.368;2022-11-18T01:14:46;3.86;91.55
68990;DHT22;56046;47.270;11.368;2022-11-18T01:17:11;3.77;91.98
68990;DHT22;56046;47.270;11.368;2022-11-18T01:19:37;3.69;92.37
68990;DHT22;56046;47.270;11.368;2022-11-18T01:22:02;3.68;92.23
68990;DHT22;56046;47.270;11.368;2022-11-18T01:24:29;3.70;91.85
68990;DHT22;56046;47.270;11.368;2022-11-18T01:26:55;3.60;93.13
68990;DHT22;56046;47.270;11.368;2022-11-18T01:29:20;3.59;93.40
68990;DHT22;56046;47.270;11.368;2022-11-18T01:31:46;3.62;93.29
68990;DHT22;56046;47.270;11.368;2022-11-18T01:34:11;3.58;93.33
68990;DHT22;56046;47.270;11.368;2022-11-18T01:36:37;3.59;93.80
68990;DHT22;56046;47.270;11.368;2022-11-18T01:39:03;3.69;93.11
68990;DHT22;56046;47.270;11.368;2022-11-18T01:41:29;3.68;92.71
68990;DHT22;56046;47.270;11.368;2022-11-18T01:46:28;3.60;92.46
68990;DHT22;56046;47.270;11.368;2022-11-18T01:48:58;3.51;93.36
68990;DHT22;56046;47.270;11.368;2022-11-18T01:51:27;3.75;93.09
68990;DHT22;56046;47.270;11.368;2022-11-18T01:54:02;3.89;93.23
68990;DHT22;56046;47.270;11.368;2022-11-18T01:56:33;4.10;92.97
68990;DHT22;56046;47.270;11.368;2022-11-18T01:59:05;4.21;92.80
68990;DHT22;56046;47.270;11.368;2022-11-18T02:01:31;4.32;92.77
68990;DHT22;56046;47.270;11.368;2022-11-18T02:03:57;4.38;92.39
68990;DHT22;56046;47.270;11.368;2022-11-18T02:06:27;4.49;92.12
68990;DHT22;56046;47.270;11.368;2022-11-18T02:08:53;4.55;91.96
68990;DHT22;56046;47.270;11.368;2022-11-18T02:11:18;4.69;91.56
68990;DHT22;56046;47.270;11.368;2022-11-18T02:14:05;4.66;90.71
68990;DHT22;56046;47.270;11.368;2022-11-18T02:17:06;4.49;90.31
68990;DHT22;56046;47.270;11.368;2022-11-18T02:28:03;3.93;90.66
68990;DHT22;56046;47.270;11.368;2022-11-18T02:31:10;3.94;90.97
68990;DHT22;56046;47.270;11.368;2022-11-18T02:33:50;4.03;90.92
68990;DHT22;56046;47.270;11.368;2022-11-18T02:36:27;4.03;91.14
68990;DHT22;56046;47.270;11.368;2022-11-18T02:39:02;3.94;91.32
68990;DHT22;56046;47.270;11.368;2022-11-18T02:41:31;3.87;91.60
68990;DHT22;56046;47.270;11.368;2022-11-18T02:44:08;3.90;91.45
68990;DHT22;56046;47.270;11.368;2022-11-18T02:46:37;3.87;91.58
68990;DHT22;56046;47.270;11.368;2022-11-18T02:49:10;3.91;91.69
68990;DHT22;56046;47.270;11.368;2022-11-18T02:51:38;3.97;91.47
68990;DHT22;56046;47.270;11.368;2022-11-18T02:54:06;4.00;91.45
68990;DHT22;56046;47.270;11.368;2022-11-18T02:56:34;4.11;90.85
68990;DHT22;56046;47.270;11.368;2022-11-18T02:59:01;4.06;90.63
68990;DHT22;56046;47.270;11.368;2022-11-18T03:01:29;4.07;90.80
68990;DHT22;56046;47.270;11.368;2022-11-18T03:03:55;4.06;90.79
68990;DHT22;56046;47.270;11.368;2022-11-18T03:17:38;4.17;90.46
68990;DHT22;56046;47.270;11.368;2022-11-18T03:20:14;4.11;91.02
68990;DHT22;56046;47.270;11.368;2022-11-18T03:25:49;4.38;91.13
68990;DHT22;56046;47.270;11.368;2022-11-18T03:28:31;4.51;91.39
68990;DHT22;56046;47.270;11.368;2022-11-18T03:31:09;4.55;91.37
68990;DHT22;56046;47.270;11.368;2022-11-18T03:33:46;4.63;91.38
68990;DHT22;56046;47.270;11.368;2022-11-18T03:36:15;4.76;91.12
68990;DHT22;56046;47.270;11.368;2022-11-18T03:38:46;4.86;91.25
68990;DHT22;56046;47.270;11.368;2022-11-18T03:41:13;4.97;91.21
68990;DHT22;56046;47.270;11.368;2022-11-18T03:43:44;5.04;91.17
68990;DHT22;56046;47.270;11.368;2022-11-18T03:46:16;5.18;91.17
68990;DHT22;56046;47.270;11.368;2022-11-18T03:48:49;5.26;90.75
68990;DHT22;56046;47.270;11.368;2022-11-18T03:51:19;5.28;90.29
68990;DHT22;56046;47.270;11.368;2022-11-18T03:54:11;5.46;89.32
68990;DHT22;56046;47.270;11.368;2022-11-18T03:56:42;5.54;86.56
68990;DHT22;56046;47.270;11.368;2022-11-18T03:59:21;5.48;86.10
68990;DHT22;56046;47.270;11.368;2022-11-18T04:02:14;5.30;86.43
68990;DHT22;56046;47.270;11.368;2022-11-18T04:04:43;5.26;86.36
68990;DHT22;56046;47.270;11.368;2022-11-18T04:09:44;5.03;87.39
68990;DHT22;56046;47.270;11.368;2022-11-18T04:12:14;4.94;87.68
68990;DHT22;56046;47.270;11.368;2022-11-18T04:14:42;4.90;88.13
68990;DHT22;56046;47.270;11.368;2022-11-18T04:17:13;4.94;88.09
68990;DHT22;56046;47.270;11.368;2022-11-18T04:19:39;4.94;88.20
68990;DHT22;56046;47.270;11.368;2022-11-18T04:22:06;5.03;88.31
68990;DHT22;56046;47.270;11.368;2022-11-18T04:24:31;5.16;87.77
68990;DHT22;56046;47.270;11.368;2022-11-18T04:26:58;5.10;87.86
68990;DHT22;56046;47.270;11.368;2022-11-18T04:29:23;5.03;88.15
68990;DHT22;56046;47.270;11.368;2022-11-18T04:31:48;5.01;88.28
68990;DHT22;56046;47.270;11.368;2022-11-18T04:34:14;4.96;88.91
68990;DHT22;56046;47.270;11.368;2022-11-18T04:36:39;5.08;88.91
68990;DHT22;56046;47.270;11.368;2022-11-18T04:39:05;5.16;88.90
68990;DHT22;56046;47.270;11.368;2022-11-18T04:41:31;5.17;88.93
68990;DHT22;56046;47.270;11.368;2022-11-18T04:44:15;5.00;89.44
68990;DHT22;56046;47.270;11.368;2022-11-18T04:46:42;5.01;89.73
68990;DHT22;56046;47.270;11.368;2022-11-18T04:49:09;4.84;90.04
68990;DHT22;56046;47.270;11.368;2022-11-18T04:51:35;4.69;90.31
68990;DHT22;56046;47.270;11.368;2022-11-18T04:54:01;4.82;90.24
68990;DHT22;56046;47.270;11.368;2022-11-18T04:56:27;4.87;90.02
68990;DHT22;56046;47.270;11.368;2022-11-18T04:58:52;4.80;90.39
68990;DHT22;56046;47.270;11.368;2022-11-18T05:01:17;4.86;90.09
68990;DHT22;56046;47.270;11.368;2022-11-18T05:03:43;4.83;89.86
68990;DHT22;56046;47.270;11.368;2022-11-18T05:06:08;4.56;90.48
68990;DHT22;56046;47.270;11.368;2022-11-18T05:08:34;4.45;91.05
68990;DHT22;56046;47.270;11.368;2022-11-18T05:10:59;4.59;91.19
68990;DHT22;56046;47.270;11.368;2022-11-18T05:13:43;4.69;91.42
68990;DHT22;56046;47.270;11.368;2022-11-18T05:16:09;4.73;91.12
68990;DHT22;56046;47.270;11.368;2022-11-18T05:18:34;4.89;90.88
68990;DHT22;56046;47.270;11.368;2022-11-18T05:21:04;4.94;90.87
68990;DHT22;56046;47.270;11.368;2022-11-18T05:23:29;4.91;91.02
68990;DHT22;56046;47.270;11.368;2022-11-18T05:25:55;4.93;90.91
68990;DHT22;56046;47.270;11.368;2022-11-18T05:28:20;4.94;90.89
68990;DHT22;56046;47.270;11.368;2022-11-18T05:30:46;4.94;91.04
68990;DHT22;56046;47.270;11.368;2022-11-18T05:33:11;4.96;90.77
68990;DHT22;56046;47.270;11.368;2022-11-18T05:35:36;4.97;91.07
68990;DHT22;56046;47.270;11.368;2022-11-18T05:38:02;5.10;90.35
68990;DHT22;56046;47.270;11.368;2022-11-18T05:40:27;5.10;90.25
68990;DHT22;56046;47.270;11.368;2022-11-18T05:42:53;5.10;90.37
68990;DHT22;56046;47.270;11.368;2022-11-18T05:45:39;5.08;90.26
68990;DHT22;56046;47.270;11.368;2022-11-18T05:48:06;5.03;90.57
68990;DHT22;56046;47.270;11.368;2022-11-18T05:50:36;4.91;91.08
68990;DHT22;56046;47.270;11.368;2022-11-18T05:53:03;4.91;91.68
68990;DHT22;56046;47.270;11.368;2022-11-18T05:56:02;4.86;92.19
68990;DHT22;56046;47.270;11.368;2022-11-18T05:58:25;4.86;93.10
68990;DHT22;56046;47.270;11.368;2022-11-18T06:00:54;5.07;92.55
68990;DHT22;56046;47.270;11.368;2022-11-18T06:03:25;5.30;91.72
68990;DHT22;56046;47.270;11.368;2022-11-18T06:05:55;5.21;91.14
68990;DHT22;56046;47.270;11.368;2022-11-18T06:08:25;5.17;91.30
68990;DHT22;56046;47.270;11.368;2022-11-18T06:10:53;5.21;91.34
68990;DHT22;56046;47.270;11.368;2022-11-18T06:13:22;5.24;90.71
68990;DHT22;56046;47.270;11.368;2022-11-18T06:15:49;5.24;90.69
68990;DHT22;56046;47.270;11.368;2022-11-18T06:18:21;5.20;90.74
68990;DHT22;56046;47.270;11.368;2022-11-18T06:20:48;5.18;90.80
68990;DHT22;56046;47.270;11.368;2022-11-18T06:23:14;5.13;90.87
68990;DHT22;56046;47.270;11.368;2022-11-18T06:25:40;5.11;90.93
68990;DHT22;56046;47.270;11.368;2022-11-18T06:28:07;5.07;91.09
68990;DHT22;56046;47.270;11.368;2022-11-18T06:30:34;5.11;91.09
68990;DHT22;56046;47.270;11.368;2022-11-18T06:32:59;5.17;90.57
68990;DHT22;56046;47.270;11.368;2022-11-18T06:35:25;5.08;91.19
68990;DHT22;56046;47.270;11.368;2022-11-18T06:37:50;5.01;91.52
68990;DHT22;56046;47.270;11.368;2022-11-18T06:40:16;5.04;91.13
68990;DHT22;56046;47.270;11.368;2022-11-18T06:42:41;5.04;91.08
68990;DHT22;56046;47.270;11.368;2022-11-18T06:45:25;5.00;91.05
68990;DHT22;56046;47.270;11.368;2022-11-18T06:47:51;4.94;91.23
68990;DHT22;56046;47.270;11.368;2022-11-18T06:50:20;4.90;92.04
68990;DHT22;56046;47.270;11.368;2022-11-18T06:52:45;4.93;91.82
68990;DHT22;56046;47.270;11.368;2022-11-18T06:55:11;5.00;91.51
68990;DHT22;56046;47.270;11.368;2022-11-18T06:57:36;5.01;91.15
68990;DHT22;56046;47.270;11.368;2022-11-18T07:00:03;5.10;90.97
68990;DHT22;56046;47.270;11.368;2022-11-18T07:02:28;5.17;90.66
68990;DHT22;56046;47.270;11.368;2022-11-18T07:04:54;5.17;90.68
68990;DHT22;56046;47.270;11.368;2022-11-18T07:07:19;5.16;90.36
68990;DHT22;56046;47.270;11.368;2022-11-18T07:09:45;5.07;91.02
68990;DHT22;56046;47.270;11.368;2022-11-18T07:12:10;5.06;90.90
68990;DHT22;56046;47.270;11.368;2022-11-18T07:14:36;5.08;91.04
68990;DHT22;56046;47.270;11.368;2022-11-18T07:17:01;5.14;90.78
68990;DHT22;56046;47.270;11.368;2022-11-18T07:19:27;5.23;90.88
68990;DHT22;56046;47.270;11.368;2022-11-18T07:21:52;5.34;90.61
68990;DHT22;56046;47.270;11.368;2022-11-18T07:24:17;5.54;90.42
68990;DHT22;56046;47.270;11.368;2022-11-18T07:26:43;5.48;89.76
68990;DHT22;56046;47.270;11.368;2022-11-18T07:29:08;5.66;90.04
68990;DHT22;56046;47.270;11.368;2022-11-18T07:31:35;5.75;89.82
68990;DHT22;56046;47.270;11.368;2022-11-18T07:34:02;5.80;89.63
68990;DHT22;56046;47.270;11.368;2022-11-18T07:36:28;5.83;89.07
68990;DHT22;56046;47.270;11.368;2022-11-18T07:38:54;5.90;89.03
68990;DHT22;56046;47.270;11.368;2022-11-18T07:41:24;5.94;89.12
68990;DHT22;56046;47.270;11.368;2022-11-18T07:43:51;5.87;89.16
68990;DHT22;56046;47.270;11.368;2022-11-18T07:48:48;6.11;89.08
68990;DHT22;56046;47.270;11.368;2022-11-18T07:51:16;6.18;88.88
68990;DHT22;56046;47.270;11.368;2022-11-18T07:53:42;6.32;88.80
68990;DHT22;56046;47.270;11.368;2022-11-18T07:56:08;6.32;88.11
68990;DHT22;56046;47.270;11.368;2022-11-18T07:58:34;6.38;88.04
68990;DHT22;56046;47.270;11.368;2022-11-18T08:01:13;6.42;88.31
68990;DHT22;56046;47.270;11.368;2022-11-18T08:03:39;6.44;88.24
68990;DHT22;56046;47.270;11.368;2022-11-18T08:06:07;6.51;88.66
68990;DHT22;56046;47.270;11.368;2022-11-18T08:08:33;6.61;88.07
68990;DHT22;56046;47.270;11.368;2022-11-18T08:11:00;6.64;87.61
68990;DHT22;56046;47.270;11.368;2022-11-18T08:13:26;6.68;87.46
68990;DHT22;56046;47.270;11.368;2022-11-18T08:15:52;6.71;87.33
68990;DHT22;56046;47.270;11.368;2022-11-18T08:18:18;6.72;87.22
68990;DHT22;56046;47.270;11.368;2022-11-18T08:20:44;6.67;86.75
68990;DHT22;56046;47.270;11.368;2022-11-18T08:23:10;6.76;86.42
68990;DHT22;56046;47.270;11.368;2022-11-18T08:25:36;6.80;85.98
68990;DHT22;56046;47.270;11.368;2022-11-18T08:28:01;6.85;86.12
68990;DHT22;56046;47.270;11.368;2022-11-18T08:30:26;6.79;86.05
68990;DHT22;56046;47.270;11.368;2022-11-18T08:32:52;6.87;85.64
68990;DHT22;56046;47.270;11.368;2022-11-18T08:35:18;6.85;86.03
68990;DHT22;56046;47.270;11.368;2022-11-18T08:37:43;6.93;85.85
68990;DHT22;56046;47.270;11.368;2022-11-18T08:40:09;6.97;86.19
68990;DHT22;56046;47.270;11.368;2022-11-18T08:42:34;6.99;85.77
68990;DHT22;56046;47.270;11.368;2022-11-18T08:45:03;7.10;85.40
68990;DHT22;56046;47.270;11.368;2022-11-18T08:47:29;7.16;85.49
68990;DHT22;56046;47.270;11.368;2022-11-18T08:49:55;7.28;85.64
68990;DHT22;56046;47.270;11.368;2022-11-18T08:52:20;7.47;85.13
68990;DHT22;56046;47.270;11.368;2022-11-18T08:54:45;7.63;84.53
68990;DHT22;56046;47.270;11.368;2022-11-18T08:57:11;7.78;84.00
68990;DHT22;56046;47.270;11.368;2022-11-18T08:59:36;7.92;83.18
68990;DHT22;56046;47.270;11.368;2022-11-18T09:02:02;8.03;82.39
68990;DHT22;56046;47.270;11.368;2022-11-18T09:04:27;8.06;82.48
68990;DHT22;56046;47.270;11.368;2022-11-18T09:06:53;8.07;82.26
68990;DHT22;56046;47.270;11.368;2022-11-18T09:09:18;8.13;81.92
68990;DHT22;56046;47.270;11.368;2022-11-18T09:11:44;8.21;81.20
68990;DHT22;56046;47.270;11.368;2022-11-18T09:14:10;8.28;80.65
68990;DHT22;56046;47.270;11.368;2022-11-18T09:16:37;8.28;80.70
68990;DHT22;56046;47.270;11.368;2022-11-18T09:19:02;8.21;80.58
68990;DHT22;56046;47.270;11.368;2022-11-18T09:21:28;8.21;80.73
68990;DHT22;56046;47.270;11.368;2022-11-18T09:23:54;8.23;80.52
68990;DHT22;56046;47.270;11.368;2022-11-18T09:26:21;8.18;80.38
68990;DHT22;56046;47.270;11.368;2022-11-18T09:28:48;8.06;80.86
68990;DHT22;56046;47.270;11.368;2022-11-18T09:31:16;8.07;81.17
68990;DHT22;56046;47.270;11.368;2022-11-18T09:33:42;8.07;80.47
68990;DHT22;56046;47.270;11.368;2022-11-18T09:36:13;7.96;81.32
68990;DHT22;56046;47.270;11.368;2022-11-18T09:38:39;7.99;80.90
68990;DHT22;56046;47.270;11.368;2022-11-18T09:49:44;8.69;79.38
68990;DHT22;56046;47.270;11.368;2022-11-18T09:52:21;9.02;78.25
68990;DHT22;56046;47.270;11.368;2022-11-18T09:54:47;9.23;77.88
68990;DHT22;56046;47.270;11.368;2022-11-18T09:57:54;9.41;76.69
68990;DHT22;56046;47.270;11.368;2022-11-18T10:00:30;9.58;76.07
68990;DHT22;56046;47.270;11.368;2022-11-18T10:03:05;9.74;76.48
68990;DHT22;56046;47.270;11.368;2022-11-18T10:05:47;9.85;76.70
68990;DHT22;56046;47.270;11.368;2022-11-18T10:08:41;9.96;76.01
68990;DHT22;56046;47.270;11.368;2022-11-18T10:13:37;10.06;74.81
68990;DHT22;56046;47.270;11.368;2022-11-18T10:16:14;10.18;75.44
68990;DHT22;56046;47.270;11.368;2022-11-18T10:18:52;10.33;74.53
68990;DHT22;56046;47.270;11.368;2022-11-18T10:23:54;10.58;74.06
68990;DHT22;56046;47.270;11.368;2022-11-18T10:26:34;10.60;73.41
68990;DHT22;56046;47.270;11.368;2022-11-18T10:29:00;10.43;72.79
68990;DHT22;56046;47.270;11.368;2022-11-18T10:31:25;10.37;74.56
68990;DHT22;56046;47.270;11.368;2022-11-18T10:34:00;10.37;74.87
68990;DHT22;56046;47.270;11.368;2022-11-18T10:36:28;10.37;74.89
68990;DHT22;56046;47.270;11.368;2022-11-18T10:39:10;10.37;75.08
68990;DHT22;56046;47.270;11.368;2022-11-18T10:41:48;10.26;74.80
68990;DHT22;56046;47.270;11.368;2022-11-18T10:44:28;10.34;74.06
68990;DHT22;56046;47.270;11.368;2022-11-18T10:46:54;10.41;74.58
68990;DHT22;56046;47.270;11.368;2022-11-18T10:49:19;10.47;73.94
68990;DHT22;56046;47.270;11.368;2022-11-18T10:52:08;10.45;73.15
68990;DHT22;56046;47.270;11.368;2022-11-18T10:54:32;10.53;73.57
68990;DHT22;56046;47.270;11.368;2022-11-18T10:57:17;10.62;72.38
68990;DHT22;56046;47.270;11.368;2022-11-18T10:59:47;10.41;72.65
68990;DHT22;56046;47.270;11.368;2022-11-18T11:04:48;10.72;73.81
68990;DHT22;56046;47.270;11.368;2022-11-18T11:10:13;10.86;71.27
68990;DHT22;56046;47.270;11.368;2022-11-18T11:12:47;10.96;71.20
68990;DHT22;56046;47.270;11.368;2022-11-18T11:17:51;11.17;70.64
68990;DHT22;56046;47.270;11.368;2022-11-18T11:20:38;11.55;69.71
68990;DHT22;56046;47.270;11.368;2022-11-18T11:23:13;11.84;68.56
68990;DHT22;56046;47.270;11.368;2022-11-18T11:33:55;11.19;70.31
68990;DHT22;56046;47.270;11.368;2022-11-18T11:36:49;11.27;69.77
68990;DHT22;56046;47.270;11.368;2022-11-18T11:39:57;11.50;69.12
68990;DHT22;56046;47.270;11.368;2022-11-18T11:42:46;11.81;67.95
68990;DHT22;56046;47.270;11.368;2022-11-18T11:45:19;11.96;67.94
68990;DHT22;56046;47.270;11.368;2022-11-18T11:50:38;12.39;64.39
68990;DHT22;56046;47.270;11.368;2022-11-18T12:06:37;14.26;58.84
68990;DHT22;56046;47.270;11.368;2022-11-18T12:12:21;13.84;59.27
68990;DHT22;56046;47.270;11.368;2022-11-18T12:23:25;13.06;64.31
68990;DHT22;56046;47.270;11.368;2022-11-18T12:30:47;12.61;67.10
68990;DHT22;56046;47.270;11.368;2022-11-18T12:33:15;12.53;68.54
68990;DHT22;56046;47.270;11.368;2022-11-18T12:35:47;12.44;69.81
68990;DHT22;56046;47.270;11.368;2022-11-18T12:38:31;12.29;70.42
68990;DHT22;56046;47.270;11.368;2022-11-18T12:40:56;12.16;70.76
68990;DHT22;56046;47.270;11.368;2022-11-18T12:46:09;11.73;72.50
68990;DHT22;56046;47.270;11.368;2022-11-18T12:48:54;11.44;73.42
68990;DHT22;56046;47.270;11.368;2022-11-18T12:53:47;10.89;74.79
68990;DHT22;56046;47.270;11.368;2022-11-18T12:58:50;10.92;77.35
68990;DHT22;56046;47.270;11.368;2022-11-18T13:01:22;10.92;76.45
68990;DHT22;56046;47.270;11.368;2022-11-18T13:03:47;10.75;76.51
68990;DHT22;56046;47.270;11.368;2022-11-18T13:06:24;10.65;76.88
68990;DHT22;56046;47.270;11.368;2022-11-18T13:08:53;10.72;77.09
68990;DHT22;56046;47.270;11.368;2022-11-18T13:11:20;10.57;78.22
68990;DHT22;56046;47.270;11.368;2022-11-18T13:14:05;10.61;78.03
68990;DHT22;56046;47.270;11.368;2022-11-18T13:16:49;10.69;78.07
68990;DHT22;56046;47.270;11.368;2022-11-18T13:19:34;10.81;78.44
68990;DHT22;56046;47.270;11.368;2022-11-18T13:22:00;10.65;78.73
68990;DHT22;56046;47.270;11.368;2022-11-18T13:24:48;10.44;79.81
68990;DHT22;56046;47.270;11.368;2022-11-18T13:27:46;10.34;79.80
68990;DHT22;56046;47.270;11.368;2022-11-18T13:30:14;10.24;79.22
68990;DHT22;56046;47.270;11.368;2022-11-18T13:32:45;10.18;80.31
68990;DHT22;56046;47.270;11.368;2022-11-18T13:35:19;10.17;80.29
68990;DHT22;56046;47.270;11.368;2022-11-18T13:37:57;9.99;79.31
68990;DHT22;56046;47.270;11.368;2022-11-18T13:40:24;9.77;80.18
68990;DHT22;56046;47.270;11.368;2022-11-18T13:42:50;9.62;81.02
68990;DHT22;56046;47.270;11.368;2022-11-18T13:45:16;9.69;81.47
68990;DHT22;56046;47.270;11.368;2022-11-18T13:50:32;9.55;82.40
68990;DHT22;56046;47.270;11.368;2022-11-18T13:55:49;9.50;80.80
68990;DHT22;56046;47.270;11.368;2022-11-18T14:00:41;9.40;82.03
68990;DHT22;56046;47.270;11.368;2022-11-18T14:03:27;9.32;81.07
68990;DHT22;56046;47.270;11.368;2022-11-18T14:05:54;9.40;81.12
68990;DHT22;56046;47.270;11.368;2022-11-18T14:08:33;9.32;80.82
68990;DHT22;56046;47.270;11.368;2022-11-18T14:10:59;9.27;81.93
68990;DHT22;56046;47.270;11.368;2022-11-18T14:13:28;9.30;83.63
68990;DHT22;56046;47.270;11.368;2022-11-18T14:15:56;9.30;83.82
68990;DHT22;56046;47.270;11.368;2022-11-18T14:18:31;9.19;84.79
68990;DHT22;56046;47.270;11.368;2022-11-18T14:20:58;9.10;83.80
68990;DHT22;56046;47.270;11.368;2022-11-18T14:23:29;9.10;83.62
68990;DHT22;56046;47.270;11.368;2022-11-18T14:25:56;9.14;83.19
68990;DHT22;56046;47.270;11.368;2022-11-18T14:28:28;9.13;83.60
68990;DHT22;56046;47.270;11.368;2022-11-18T14:33:27;9.24;85.12
68990;DHT22;56046;47.270;11.368;2022-11-18T14:41:02;9.13;84.65
68990;DHT22;56046;47.270;11.368;2022-11-18T14:43:28;8.90;85.41
68990;DHT22;56046;47.270;11.368;2022-11-18T14:46:17;9.04;84.40
68990;DHT22;56046;47.270;11.368;2022-11-18T14:48:44;9.00;83.89
68990;DHT22;56046;47.270;11.368;2022-11-18T14:51:13;8.94;84.66
68990;DHT22;56046;47.270;11.368;2022-11-18T14:53:40;8.80;85.50
68990;DHT22;56046;47.270;11.368;2022-11-18T14:56:12;8.79;86.30
68990;DHT22;56046;47.270;11.368;2022-11-18T14:58:38;8.77;85.08
68990;DHT22;56046;47.270;11.368;2022-11-18T15:01:03;8.83;85.22
68990;DHT22;56046;47.270;11.368;2022-11-18T15:03:28;8.92;84.36
68990;DHT22;56046;47.270;11.368;2022-11-18T15:05:54;8.96;84.69
68990;DHT22;56046;47.270;11.368;2022-11-18T15:08:19;8.85;87.49
68990;DHT22;56046;47.270;11.368;2022-11-18T15:10:45;8.80;85.40
68990;DHT22;56046;47.270;11.368;2022-11-18T15:13:10;8.72;85.12
68990;DHT22;56046;47.270;11.368;2022-11-18T15:15:36;8.65;84.91
68990;DHT22;56046;47.270;11.368;2022-11-18T15:18:02;8.52;84.80
68990;DHT22;56046;47.270;11.368;2022-11-18T15:20:28;8.44;85.65
68990;DHT22;56046;47.270;11.368;2022-11-18T15:22:53;8.42;84.87
68990;DHT22;56046;47.270;11.368;2022-11-18T15:25:18;8.41;85.69
68990;DHT22;56046;47.270;11.368;2022-11-18T15:27:44;8.47;85.67
68990;DHT22;56046;47.270;11.368;2022-11-18T15:30:11;8.54;86.08
68990;DHT22;56046;47.270;11.368;2022-11-18T15:32:37;8.56;85.75
68990;DHT22;56046;47.270;11.368;2022-11-18T15:35:03;8.56;86.02
68990;DHT22;56046;47.270;11.368;2022-11-18T15:37:28;8.56;85.35
68990;DHT22;56046;47.270;11.368;2022-11-18T15:39:54;8.54;85.25
68990;DHT22;56046;47.270;11.368;2022-11-18T15:42:19;8.54;84.42
68990;DHT22;56046;47.270;11.368;2022-11-18T15:44:44;8.51;84.86
68990;DHT22;56046;47.270;11.368;2022-11-18T15:47:10;8.42;85.63
68990;DHT22;56046;47.270;11.368;2022-11-18T15:49:36;8.17;85.95
68990;DHT22;56046;47.270;11.368;2022-11-18T15:52:08;8.16;86.13
68990;DHT22;56046;47.270;11.368;2022-11-18T15:54:34;7.99;86.69
68990;DHT22;56046;47.270;11.368;2022-11-18T15:56:59;7.93;86.59
68990;DHT22;56046;47.270;11.368;2022-11-18T15:59:24;7.83;87.17
68990;DHT22;56046;47.270;11.368;2022-11-18T16:01:53;7.79;87.29
68990;DHT22;56046;47.270;11.368;2022-11-18T16:04:19;7.65;87.71
68990;DHT22;56046;47.270;11.368;2022-11-18T16:06:45;7.75;87.06
68990;DHT22;56046;47.270;11.368;2022-11-18T16:09:11;7.59;87.13
68990;DHT22;56046;47.270;11.368;2022-11-18T16:11:37;7.75;87.28
68990;DHT22;56046;47.270;11.368;2022-11-18T16:14:22;7.58;87.78
68990;DHT22;56046;47.270;11.368;2022-11-18T16:16:49;7.61;87.79
68990;DHT22;56046;47.270;11.368;2022-11-18T16:19:18;7.38;88.23
68990;DHT22;56046;47.270;11.368;2022-11-18T16:21:48;7.47;87.77
68990;DHT22;56046;47.270;11.368;2022-11-18T16:24:26;7.47;88.14
68990;DHT22;56046;47.270;11.368;2022-11-18T16:26:52;7.48;87.55
68990;DHT22;56046;47.270;11.368;2022-11-18T16:29:17;7.44;87.39
68990;DHT22;56046;47.270;11.368;2022-11-18T16:31:48;7.40;86.95
68990;DHT22;56046;47.270;11.368;2022-11-18T16:34:27;7.36;87.21
68990;DHT22;56046;47.270;11.368;2022-11-18T16:36:54;7.24;87.38
68990;DHT22;56046;47.270;11.368;2022-11-18T16:39:24;7.28;86.54
68990;DHT22;56046;47.270;11.368;2022-11-18T16:41:53;7.34;86.32
68990;DHT22;56046;47.270;11.368;2022-11-18T16:44:19;7.32;86.13
68990;DHT22;56046;47.270;11.368;2022-11-18T16:46:47;7.30;85.86
68990;DHT22;56046;47.270;11.368;2022-11-18T16:49:14;7.34;86.76
68990;DHT22;56046;47.270;11.368;2022-11-18T16:51:42;7.28;86.61
68990;DHT22;56046;47.270;11.368;2022-11-18T16:54:14;7.34;86.47
68990;DHT22;56046;47.270;11.368;2022-11-18T16:56:44;7.34;86.81
68990;DHT22;56046;47.270;11.368;2022-11-18T16:59:15;7.32;86.23
68990;DHT22;56046;47.270;11.368;2022-11-18T17:01:42;7.34;86.54
68990;DHT22;56046;47.270;11.368;2022-11-18T17:04:07;7.35;85.45
68990;DHT22;56046;47.270;11.368;2022-11-18T17:06:33;7.18;85.86
68990;DHT22;56046;47.270;11.368;2022-11-18T17:08:59;7.21;85.91
68990;DHT22;56046;47.270;11.368;2022-11-18T17:11:25;6.97;86.43
68990;DHT22;56046;47.270;11.368;2022-11-18T17:13:52;6.73;87.65
68990;DHT22;56046;47.270;11.368;2022-11-18T17:16:20;6.82;87.55
68990;DHT22;56046;47.270;11.368;2022-11-18T17:18:46;6.73;87.18
68990;DHT22;56046;47.270;11.368;2022-11-18T17:21:15;6.85;87.11
68990;DHT22;56046;47.270;11.368;2022-11-18T17:23:45;6.95;85.63
68990;DHT22;56046;47.270;11.368;2022-11-18T17:26:12;6.78;86.09
68990;DHT22;56046;47.270;11.368;2022-11-18T17:28:38;6.80;86.48
68990;DHT22;56046;47.270;11.368;2022-11-18T17:31:08;6.86;86.52
68990;DHT22;56046;47.270;11.368;2022-11-18T17:33:35;6.68;87.07
68990;DHT22;56046;47.270;11.368;2022-11-18T17:36:04;6.73;86.93
68990;DHT22;56046;47.270;11.368;2022-11-18T17:38:33;6.75;86.88
68990;DHT22;56046;47.270;11.368;2022-11-18T17:40:59;6.62;87.34